sensor_id;sensor_type;location;lat;lon;timestamp;P1;durP1;ratioP1;P2;durP2;ratioP2
12348;SDS011;5974;42.710;27.258;2022-09-13T00:01:27;1.90;;;1.60;;
12348;SDS011;5974;42.710;27.258;2022-09-13T00:03:54;2.20;;;1.50;;
12348;SDS011;5974;42.710;27.258;2022-09-13T00:06:21;1.80;;;1.70;;
12348;SDS011;5974;42.710;27.258;2022-09-13T00:08:47;1.93;;;1.60;;
12348;SDS011;5974;42.710;27.258;2022-09-13T00:11:15;1.83;;;1.53;;
12348;SDS011;5974;42.710;27.258;2022-09-13T00:13:42;1.60;;;1.50;;
12348;SDS011;5974;42.710;27.258;2022-09-13T00:16:10;1.87;;;1.70;;
12348;SDS011;5974;42.710;27.258;2022-09-13T00:18:38;1.80;;;1.70;;
12348;SDS011;5974;42.710;27.258;2022-09-13T00:21:05;2.30;;;1.80;;
12348;SDS011;5974;42.710;27.258;2022-09-13T00:23:32;3.53;;;2.10;;
12348;SDS011;5974;42.710;27.258;2022-09-13T00:26:05;3.43;;;1.70;;
12348;SDS011;5974;42.710;27.258;2022-09-13T00:28:33;4.20;;;1.90;;
12348;SDS011;5974;42.710;27.258;2022-09-13T00:30:59;2.13;;;1.90;;
12348;SDS011;5974;42.710;27.258;2022-09-13T00:33:26;3.43;;;1.50;;
12348;SDS011;5974;42.710;27.258;2022-09-13T00:35:54;2.53;;;1.80;;
12348;SDS011;5974;42.710;27.258;2022-09-13T00:38:21;2.87;;;2.00;;
12348;SDS011;5974;42.710;27.258;2022-09-13T00:40:48;1.93;;;1.83;;
12348;SDS011;5974;42.710;27.258;2022-09-13T00:43:15;2.13;;;1.67;;
12348;SDS011;5974;42.710;27.258;2022-09-13T00:45:43;2.00;;;1.90;;
12348;SDS011;5974;42.710;27.258;2022-09-13T00:48:11;1.77;;;1.70;;
12348;SDS011;5974;42.710;27.258;2022-09-13T00:50:41;2.63;;;1.70;;
12348;SDS011;5974;42.710;27.258;2022-09-13T00:53:10;1.77;;;1.67;;
12348;SDS011;5974;42.710;27.258;2022-09-13T00:55:38;2.77;;;1.70;;
12348;SDS011;5974;42.710;27.258;2022-09-13T00:58:08;1.60;;;1.50;;
12348;SDS011;5974;42.710;27.258;2022-09-13T01:00:36;2.23;;;1.77;;
12348;SDS011;5974;42.710;27.258;2022-09-13T01:03:04;1.80;;;1.70;;
12348;SDS011;5974;42.710;27.258;2022-09-13T01:05:32;1.60;;;1.50;;
12348;SDS011;5974;42.710;27.258;2022-09-13T01:08:00;2.37;;;1.57;;
12348;SDS011;5974;42.710;27.258;2022-09-13T01:10:29;1.60;;;1.50;;
12348;SDS011;5974;42.710;27.258;2022-09-13T01:12:58;2.10;;;1.90;;
12348;SDS011;5974;42.710;27.258;2022-09-13T01:15:28;1.67;;;1.57;;
12348;SDS011;5974;42.710;27.258;2022-09-13T01:17:55;3.20;;;1.80;;
12348;SDS011;5974;42.710;27.258;2022-09-13T01:20:22;3.13;;;1.73;;
12348;SDS011;5974;42.710;27.258;2022-09-13T01:23:06;2.53;;;1.57;;
12348;SDS011;5974;42.710;27.258;2022-09-13T01:28:27;2.50;;;1.70;;
12348;SDS011;5974;42.710;27.258;2022-09-13T01:30:58;3.70;;;1.63;;
12348;SDS011;5974;42.710;27.258;2022-09-13T01:33:41;2.63;;;1.83;;
12348;SDS011;5974;42.710;27.258;2022-09-13T01:36:23;1.60;;;1.50;;
12348;SDS011;5974;42.710;27.258;2022-09-13T01:38:58;3.10;;;1.50;;
12348;SDS011;5974;42.710;27.258;2022-09-13T01:41:40;2.33;;;1.67;;
12348;SDS011;5974;42.710;27.258;2022-09-13T01:44:14;4.50;;;1.97;;
12348;SDS011;5974;42.710;27.258;2022-09-13T01:46:44;1.80;;;1.70;;
12348;SDS011;5974;42.710;27.258;2022-09-13T01:49:13;1.87;;;1.60;;
12348;SDS011;5974;42.710;27.258;2022-09-13T01:51:43;1.90;;;1.80;;
12348;SDS011;5974;42.710;27.258;2022-09-13T01:54:12;2.20;;;1.73;;
12348;SDS011;5974;42.710;27.258;2022-09-13T01:56:42;2.00;;;1.80;;
12348;SDS011;5974;42.710;27.258;2022-09-13T01:59:13;3.40;;;1.80;;
12348;SDS011;5974;42.710;27.258;2022-09-13T02:01:41;1.80;;;1.70;;
12348;SDS011;5974;42.710;27.258;2022-09-13T02:04:12;1.80;;;1.70;;
12348;SDS011;5974;42.710;27.258;2022-09-13T02:06:41;1.80;;;1.50;;
12348;SDS011;5974;42.710;27.258;2022-09-13T02:09:10;1.70;;;1.60;;
12348;SDS011;5974;42.710;27.258;2022-09-13T02:11:38;3.50;;;1.60;;
12348;SDS011;5974;42.710;27.258;2022-09-13T02:14:08;2.70;;;1.60;;
12348;SDS011;5974;42.710;27.258;2022-09-13T02:16:38;1.90;;;1.80;;
12348;SDS011;5974;42.710;27.258;2022-09-13T02:19:06;2.37;;;1.70;;
12348;SDS011;5974;42.710;27.258;2022-09-13T02:21:37;2.03;;;1.60;;
12348;SDS011;5974;42.710;27.258;2022-09-13T02:24:05;2.27;;;1.70;;
12348;SDS011;5974;42.710;27.258;2022-09-13T02:26:32;2.20;;;2.00;;
12348;SDS011;5974;42.710;27.258;2022-09-13T02:29:00;2.67;;;1.87;;
12348;SDS011;5974;42.710;27.258;2022-09-13T02:31:29;3.40;;;1.83;;
12348;SDS011;5974;42.710;27.258;2022-09-13T02:33:59;2.33;;;1.80;;
12348;SDS011;5974;42.710;27.258;2022-09-13T02:36:29;5.53;;;2.10;;
12348;SDS011;5974;42.710;27.258;2022-09-13T02:38:58;1.90;;;1.80;;
12348;SDS011;5974;42.710;27.258;2022-09-13T02:41:29;3.80;;;1.83;;
12348;SDS011;5974;42.710;27.258;2022-09-13T02:44:00;3.60;;;2.20;;
12348;SDS011;5974;42.710;27.258;2022-09-13T02:46:33;3.27;;;1.80;;
12348;SDS011;5974;42.710;27.258;2022-09-13T02:49:02;2.17;;;2.00;;
12348;SDS011;5974;42.710;27.258;2022-09-13T02:51:35;2.10;;;1.90;;
12348;SDS011;5974;42.710;27.258;2022-09-13T02:54:12;3.17;;;1.67;;
12348;SDS011;5974;42.710;27.258;2022-09-13T02:56:43;1.80;;;1.70;;
12348;SDS011;5974;42.710;27.258;2022-09-13T02:59:15;2.10;;;2.00;;
12348;SDS011;5974;42.710;27.258;2022-09-13T03:01:44;3.40;;;1.80;;
12348;SDS011;5974;42.710;27.258;2022-09-13T03:04:12;1.50;;;1.40;;
12348;SDS011;5974;42.710;27.258;2022-09-13T03:06:39;3.50;;;1.90;;
12348;SDS011;5974;42.710;27.258;2022-09-13T03:09:06;1.67;;;1.67;;
12348;SDS011;5974;42.710;27.258;2022-09-13T03:11:39;3.70;;;1.73;;
12348;SDS011;5974;42.710;27.258;2022-09-13T03:14:13;1.73;;;1.53;;
12348;SDS011;5974;42.710;27.258;2022-09-13T03:16:47;2.50;;;1.97;;
12348;SDS011;5974;42.710;27.258;2022-09-13T03:19:19;6.87;;;2.27;;
12348;SDS011;5974;42.710;27.258;2022-09-13T03:21:53;2.93;;;1.87;;
12348;SDS011;5974;42.710;27.258;2022-09-13T03:24:24;2.17;;;1.97;;
12348;SDS011;5974;42.710;27.258;2022-09-13T03:26:57;1.90;;;1.70;;
12348;SDS011;5974;42.710;27.258;2022-09-13T03:29:29;2.13;;;2.03;;
12348;SDS011;5974;42.710;27.258;2022-09-13T03:32:01;2.63;;;2.40;;
12348;SDS011;5974;42.710;27.258;2022-09-13T03:34:31;2.20;;;2.00;;
12348;SDS011;5974;42.710;27.258;2022-09-13T03:37:01;4.43;;;2.00;;
12348;SDS011;5974;42.710;27.258;2022-09-13T03:39:32;2.10;;;2.00;;
12348;SDS011;5974;42.710;27.258;2022-09-13T03:42:03;4.03;;;2.17;;
12348;SDS011;5974;42.710;27.258;2022-09-13T03:44:31;2.80;;;2.10;;
12348;SDS011;5974;42.710;27.258;2022-09-13T03:46:59;2.80;;;2.00;;
12348;SDS011;5974;42.710;27.258;2022-09-13T03:49:26;4.83;;;2.30;;
12348;SDS011;5974;42.710;27.258;2022-09-13T03:51:54;2.23;;;2.10;;
12348;SDS011;5974;42.710;27.258;2022-09-13T03:54:23;2.20;;;1.77;;
12348;SDS011;5974;42.710;27.258;2022-09-13T03:59:38;2.37;;;2.27;;
12348;SDS011;5974;42.710;27.258;2022-09-13T04:02:07;3.70;;;2.20;;
12348;SDS011;5974;42.710;27.258;2022-09-13T04:04:36;2.10;;;2.00;;
12348;SDS011;5974;42.710;27.258;2022-09-13T04:07:03;3.17;;;1.80;;
12348;SDS011;5974;42.710;27.258;2022-09-13T04:09:29;2.37;;;2.17;;
12348;SDS011;5974;42.710;27.258;2022-09-13T04:11:56;5.30;;;2.17;;
12348;SDS011;5974;42.710;27.258;2022-09-13T04:14:22;2.83;;;2.00;;
12348;SDS011;5974;42.710;27.258;2022-09-13T04:16:52;2.20;;;2.03;;
12348;SDS011;5974;42.710;27.258;2022-09-13T04:19:19;2.10;;;1.93;;
12348;SDS011;5974;42.710;27.258;2022-09-13T04:21:46;10.67;;;2.30;;
12348;SDS011;5974;42.710;27.258;2022-09-13T04:24:13;2.37;;;1.93;;
12348;SDS011;5974;42.710;27.258;2022-09-13T04:26:39;2.50;;;2.07;;
12348;SDS011;5974;42.710;27.258;2022-09-13T04:29:06;4.60;;;2.20;;
12348;SDS011;5974;42.710;27.258;2022-09-13T04:31:33;3.77;;;2.00;;
12348;SDS011;5974;42.710;27.258;2022-09-13T04:34:01;5.37;;;2.40;;
12348;SDS011;5974;42.710;27.258;2022-09-13T04:36:28;2.00;;;1.80;;
12348;SDS011;5974;42.710;27.258;2022-09-13T04:38:56;3.87;;;2.10;;
12348;SDS011;5974;42.710;27.258;2022-09-13T04:41:24;1.83;;;1.73;;
12348;SDS011;5974;42.710;27.258;2022-09-13T04:43:51;1.97;;;1.87;;
12348;SDS011;5974;42.710;27.258;2022-09-13T04:46:17;2.00;;;1.90;;
12348;SDS011;5974;42.710;27.258;2022-09-13T04:48:47;1.70;;;1.60;;
12348;SDS011;5974;42.710;27.258;2022-09-13T04:51:15;1.90;;;1.77;;
12348;SDS011;5974;42.710;27.258;2022-09-13T04:53:42;3.83;;;1.70;;
12348;SDS011;5974;42.710;27.258;2022-09-13T04:56:09;2.30;;;1.70;;
12348;SDS011;5974;42.710;27.258;2022-09-13T04:58:38;2.23;;;1.83;;
12348;SDS011;5974;42.710;27.258;2022-09-13T05:01:05;2.93;;;1.70;;
12348;SDS011;5974;42.710;27.258;2022-09-13T05:03:32;1.80;;;1.70;;
12348;SDS011;5974;42.710;27.258;2022-09-13T05:06:02;2.03;;;1.87;;
12348;SDS011;5974;42.710;27.258;2022-09-13T05:08:30;2.20;;;2.00;;
12348;SDS011;5974;42.710;27.258;2022-09-13T05:10:57;2.67;;;1.90;;
12348;SDS011;5974;42.710;27.258;2022-09-13T05:13:24;2.07;;;1.90;;
12348;SDS011;5974;42.710;27.258;2022-09-13T05:15:53;6.37;;;2.00;;
12348;SDS011;5974;42.710;27.258;2022-09-13T05:18:20;1.80;;;1.70;;
12348;SDS011;5974;42.710;27.258;2022-09-13T05:20:46;1.90;;;1.80;;
12348;SDS011;5974;42.710;27.258;2022-09-13T05:23:13;2.20;;;2.00;;
12348;SDS011;5974;42.710;27.258;2022-09-13T05:25:41;2.70;;;1.80;;
12348;SDS011;5974;42.710;27.258;2022-09-13T05:28:07;1.80;;;1.70;;
12348;SDS011;5974;42.710;27.258;2022-09-13T05:30:34;1.83;;;1.73;;
12348;SDS011;5974;42.710;27.258;2022-09-13T05:33:00;3.43;;;1.83;;
12348;SDS011;5974;42.710;27.258;2022-09-13T05:35:27;1.80;;;1.70;;
12348;SDS011;5974;42.710;27.258;2022-09-13T05:37:54;1.67;;;1.63;;
12348;SDS011;5974;42.710;27.258;2022-09-13T05:40:21;2.73;;;1.90;;
12348;SDS011;5974;42.710;27.258;2022-09-13T05:42:49;3.83;;;1.90;;
12348;SDS011;5974;42.710;27.258;2022-09-13T05:45:17;1.83;;;1.70;;
12348;SDS011;5974;42.710;27.258;2022-09-13T05:47:44;3.13;;;2.10;;
12348;SDS011;5974;42.710;27.258;2022-09-13T05:50:15;2.00;;;1.90;;
12348;SDS011;5974;42.710;27.258;2022-09-13T05:52:41;1.70;;;1.60;;
12348;SDS011;5974;42.710;27.258;2022-09-13T05:55:08;2.97;;;1.80;;
12348;SDS011;5974;42.710;27.258;2022-09-13T05:57:35;6.97;;;1.53;;
12348;SDS011;5974;42.710;27.258;2022-09-13T06:00:03;1.83;;;1.70;;
12348;SDS011;5974;42.710;27.258;2022-09-13T06:02:30;2.07;;;1.83;;
12348;SDS011;5974;42.710;27.258;2022-09-13T06:04:57;3.10;;;1.87;;
12348;SDS011;5974;42.710;27.258;2022-09-13T06:07:23;2.67;;;1.60;;
12348;SDS011;5974;42.710;27.258;2022-09-13T06:09:50;5.67;;;1.80;;
12348;SDS011;5974;42.710;27.258;2022-09-13T06:12:17;2.03;;;1.50;;
12348;SDS011;5974;42.710;27.258;2022-09-13T06:14:44;4.67;;;1.73;;
12348;SDS011;5974;42.710;27.258;2022-09-13T06:17:12;2.00;;;1.50;;
12348;SDS011;5974;42.710;27.258;2022-09-13T06:19:39;2.07;;;1.83;;
12348;SDS011;5974;42.710;27.258;2022-09-13T06:22:06;4.27;;;1.90;;
12348;SDS011;5974;42.710;27.258;2022-09-13T06:24:32;2.43;;;1.80;;
12348;SDS011;5974;42.710;27.258;2022-09-13T06:27:07;3.47;;;1.90;;
12348;SDS011;5974;42.710;27.258;2022-09-13T06:29:34;2.57;;;1.63;;
12348;SDS011;5974;42.710;27.258;2022-09-13T06:32:01;2.10;;;1.43;;
12348;SDS011;5974;42.710;27.258;2022-09-13T06:34:29;4.30;;;1.80;;
12348;SDS011;5974;42.710;27.258;2022-09-13T06:36:56;2.50;;;1.60;;
12348;SDS011;5974;42.710;27.258;2022-09-13T06:39:22;3.80;;;2.30;;
12348;SDS011;5974;42.710;27.258;2022-09-13T06:41:49;4.73;;;1.70;;
12348;SDS011;5974;42.710;27.258;2022-09-13T06:44:16;2.53;;;1.63;;
12348;SDS011;5974;42.710;27.258;2022-09-13T06:46:42;1.57;;;1.50;;
12348;SDS011;5974;42.710;27.258;2022-09-13T06:49:09;1.90;;;1.30;;
12348;SDS011;5974;42.710;27.258;2022-09-13T06:51:37;5.13;;;1.70;;
12348;SDS011;5974;42.710;27.258;2022-09-13T06:54:04;4.37;;;1.53;;
12348;SDS011;5974;42.710;27.258;2022-09-13T06:56:31;2.63;;;1.50;;
12348;SDS011;5974;42.710;27.258;2022-09-13T06:58:58;3.33;;;1.43;;
12348;SDS011;5974;42.710;27.258;2022-09-13T07:01:26;2.13;;;1.90;;
12348;SDS011;5974;42.710;27.258;2022-09-13T07:03:54;1.60;;;1.42;;
12348;SDS011;5974;42.710;27.258;2022-09-13T07:06:21;1.45;;;1.35;;
12348;SDS011;5974;42.710;27.258;2022-09-13T07:08:50;2.35;;;1.50;;
12348;SDS011;5974;42.710;27.258;2022-09-13T07:11:17;1.67;;;1.57;;
12348;SDS011;5974;42.710;27.258;2022-09-13T07:13:46;1.90;;;1.60;;
12348;SDS011;5974;42.710;27.258;2022-09-13T07:16:13;2.10;;;1.70;;
12348;SDS011;5974;42.710;27.258;2022-09-13T07:18:40;1.53;;;1.40;;
12348;SDS011;5974;42.710;27.258;2022-09-13T07:21:07;3.80;;;1.50;;
12348;SDS011;5974;42.710;27.258;2022-09-13T07:23:35;1.30;;;1.30;;
12348;SDS011;5974;42.710;27.258;2022-09-13T07:26:03;1.50;;;1.40;;
12348;SDS011;5974;42.710;27.258;2022-09-13T07:28:32;1.75;;;1.42;;
12348;SDS011;5974;42.710;27.258;2022-09-13T07:31:06;3.17;;;1.50;;
12348;SDS011;5974;42.710;27.258;2022-09-13T07:33:33;1.50;;;1.48;;
12348;SDS011;5974;42.710;27.258;2022-09-13T07:36:00;1.90;;;1.40;;
12348;SDS011;5974;42.710;27.258;2022-09-13T07:38:30;1.37;;;1.37;;
12348;SDS011;5974;42.710;27.258;2022-09-13T07:40:57;1.70;;;1.60;;
12348;SDS011;5974;42.710;27.258;2022-09-13T07:43:25;2.00;;;1.50;;
12348;SDS011;5974;42.710;27.258;2022-09-13T07:45:55;1.37;;;1.37;;
12348;SDS011;5974;42.710;27.258;2022-09-13T07:48:22;1.20;;;1.20;;
12348;SDS011;5974;42.710;27.258;2022-09-13T07:50:55;1.27;;;1.27;;
12348;SDS011;5974;42.710;27.258;2022-09-13T07:53:21;1.93;;;1.33;;
12348;SDS011;5974;42.710;27.258;2022-09-13T07:55:48;1.53;;;1.43;;
12348;SDS011;5974;42.710;27.258;2022-09-13T07:58:15;3.70;;;1.30;;
12348;SDS011;5974;42.710;27.258;2022-09-13T08:00:43;1.90;;;1.40;;
12348;SDS011;5974;42.710;27.258;2022-09-13T08:03:09;1.60;;;1.50;;
12348;SDS011;5974;42.710;27.258;2022-09-13T08:05:37;1.63;;;1.53;;
12348;SDS011;5974;42.710;27.258;2022-09-13T08:08:04;1.70;;;1.50;;
12348;SDS011;5974;42.710;27.258;2022-09-13T08:10:31;1.57;;;1.43;;
12348;SDS011;5974;42.710;27.258;2022-09-13T08:12:58;1.67;;;1.40;;
12348;SDS011;5974;42.710;27.258;2022-09-13T08:15:25;3.10;;;1.60;;
12348;SDS011;5974;42.710;27.258;2022-09-13T08:17:53;1.63;;;1.30;;
12348;SDS011;5974;42.710;27.258;2022-09-13T08:20:20;1.53;;;1.50;;
12348;SDS011;5974;42.710;27.258;2022-09-13T08:22:48;1.43;;;1.40;;
12348;SDS011;5974;42.710;27.258;2022-09-13T08:25:14;1.27;;;1.20;;
12348;SDS011;5974;42.710;27.258;2022-09-13T08:27:41;1.33;;;1.23;;
12348;SDS011;5974;42.710;27.258;2022-09-13T08:30:08;1.43;;;1.33;;
12348;SDS011;5974;42.710;27.258;2022-09-13T08:32:34;1.80;;;1.37;;
12348;SDS011;5974;42.710;27.258;2022-09-13T08:35:03;1.50;;;1.40;;
12348;SDS011;5974;42.710;27.258;2022-09-13T08:37:30;2.70;;;1.50;;
12348;SDS011;5974;42.710;27.258;2022-09-13T08:39:59;3.90;;;1.50;;
12348;SDS011;5974;42.710;27.258;2022-09-13T08:42:28;1.00;;;1.00;;
12348;SDS011;5974;42.710;27.258;2022-09-13T08:44:58;2.43;;;1.20;;
12348;SDS011;5974;42.710;27.258;2022-09-13T08:47:37;1.30;;;1.30;;
12348;SDS011;5974;42.710;27.258;2022-09-13T08:50:09;1.23;;;1.20;;
12348;SDS011;5974;42.710;27.258;2022-09-13T08:52:39;2.67;;;1.10;;
12348;SDS011;5974;42.710;27.258;2022-09-13T08:55:12;1.43;;;1.33;;
12348;SDS011;5974;42.710;27.258;2022-09-13T08:57:44;1.20;;;1.20;;
12348;SDS011;5974;42.710;27.258;2022-09-13T09:00:15;1.90;;;1.20;;
12348;SDS011;5974;42.710;27.258;2022-09-13T09:02:47;1.47;;;1.20;;
12348;SDS011;5974;42.710;27.258;2022-09-13T09:05:20;2.87;;;1.30;;
12348;SDS011;5974;42.710;27.258;2022-09-13T09:07:47;4.23;;;1.90;;
12348;SDS011;5974;42.710;27.258;2022-09-13T09:10:16;1.30;;;1.20;;
12348;SDS011;5974;42.710;27.258;2022-09-13T09:12:45;1.20;;;1.10;;
12348;SDS011;5974;42.710;27.258;2022-09-13T09:15:13;4.27;;;1.30;;
12348;SDS011;5974;42.710;27.258;2022-09-13T09:17:45;1.40;;;1.30;;
12348;SDS011;5974;42.710;27.258;2022-09-13T09:20:17;1.40;;;1.30;;
12348;SDS011;5974;42.710;27.258;2022-09-13T09:22:47;1.83;;;1.40;;
12348;SDS011;5974;42.710;27.258;2022-09-13T09:25:15;1.20;;;1.20;;
12348;SDS011;5974;42.710;27.258;2022-09-13T09:27:41;1.13;;;1.13;;
12348;SDS011;5974;42.710;27.258;2022-09-13T09:30:11;1.97;;;1.50;;
12348;SDS011;5974;42.710;27.258;2022-09-13T09:35:24;1.10;;;1.10;;
12348;SDS011;5974;42.710;27.258;2022-09-13T09:38:00;1.07;;;1.07;;
12348;SDS011;5974;42.710;27.258;2022-09-13T09:40:31;1.80;;;1.40;;
12348;SDS011;5974;42.710;27.258;2022-09-13T09:42:59;1.40;;;1.30;;
12348;SDS011;5974;42.710;27.258;2022-09-13T09:45:27;1.30;;;1.20;;
12348;SDS011;5974;42.710;27.258;2022-09-13T09:47:54;1.60;;;1.30;;
12348;SDS011;5974;42.710;27.258;2022-09-13T09:50:22;2.87;;;1.30;;
12348;SDS011;5974;42.710;27.258;2022-09-13T09:52:51;1.23;;;1.13;;
12348;SDS011;5974;42.710;27.258;2022-09-13T09:55:24;2.13;;;1.20;;
12348;SDS011;5974;42.710;27.258;2022-09-13T09:57:53;2.13;;;1.80;;
12348;SDS011;5974;42.710;27.258;2022-09-13T10:00:20;1.20;;;1.20;;
12348;SDS011;5974;42.710;27.258;2022-09-13T10:02:48;1.30;;;1.20;;
12348;SDS011;5974;42.710;27.258;2022-09-13T10:05:20;1.40;;;1.20;;
12348;SDS011;5974;42.710;27.258;2022-09-13T10:07:52;1.40;;;1.30;;
12348;SDS011;5974;42.710;27.258;2022-09-13T10:10:20;1.03;;;1.03;;
12348;SDS011;5974;42.710;27.258;2022-09-13T10:12:50;2.47;;;1.43;;
12348;SDS011;5974;42.710;27.258;2022-09-13T10:15:19;1.10;;;1.10;;
12348;SDS011;5974;42.710;27.258;2022-09-13T10:17:59;2.40;;;1.27;;
12348;SDS011;5974;42.710;27.258;2022-09-13T10:20:26;3.70;;;1.20;;
12348;SDS011;5974;42.710;27.258;2022-09-13T10:23:08;1.20;;;1.20;;
12348;SDS011;5974;42.710;27.258;2022-09-13T10:25:35;1.30;;;1.17;;
12348;SDS011;5974;42.710;27.258;2022-09-13T10:28:03;3.53;;;1.13;;
12348;SDS011;5974;42.710;27.258;2022-09-13T10:30:31;2.17;;;1.37;;
12348;SDS011;5974;42.710;27.258;2022-09-13T10:33:00;1.10;;;1.10;;
12348;SDS011;5974;42.710;27.258;2022-09-13T10:35:28;1.47;;;1.37;;
12348;SDS011;5974;42.710;27.258;2022-09-13T10:37:54;1.00;;;1.00;;
12348;SDS011;5974;42.710;27.258;2022-09-13T10:40:23;1.20;;;1.20;;
12348;SDS011;5974;42.710;27.258;2022-09-13T10:42:51;1.17;;;1.17;;
12348;SDS011;5974;42.710;27.258;2022-09-13T10:45:21;1.30;;;1.17;;
12348;SDS011;5974;42.710;27.258;2022-09-13T10:47:48;1.07;;;1.00;;
12348;SDS011;5974;42.710;27.258;2022-09-13T10:50:20;1.20;;;1.17;;
12348;SDS011;5974;42.710;27.258;2022-09-13T10:52:47;4.30;;;1.47;;
12348;SDS011;5974;42.710;27.258;2022-09-13T10:55:32;1.87;;;0.93;;
12348;SDS011;5974;42.710;27.258;2022-09-13T10:58:17;0.90;;;0.90;;
12348;SDS011;5974;42.710;27.258;2022-09-13T11:03:29;0.90;;;0.90;;
12348;SDS011;5974;42.710;27.258;2022-09-13T11:06:01;1.10;;;1.10;;
12348;SDS011;5974;42.710;27.258;2022-09-13T11:08:36;1.20;;;1.10;;
12348;SDS011;5974;42.710;27.258;2022-09-13T11:11:09;3.00;;;1.20;;
12348;SDS011;5974;42.710;27.258;2022-09-13T11:13:40;1.53;;;1.03;;
12348;SDS011;5974;42.710;27.258;2022-09-13T11:16:11;3.97;;;1.20;;
12348;SDS011;5974;42.710;27.258;2022-09-13T11:18:50;2.63;;;0.90;;
12348;SDS011;5974;42.710;27.258;2022-09-13T11:21:24;1.10;;;1.10;;
12348;SDS011;5974;42.710;27.258;2022-09-13T11:26:48;1.17;;;1.10;;
12348;SDS011;5974;42.710;27.258;2022-09-13T11:29:29;1.30;;;1.20;;
12348;SDS011;5974;42.710;27.258;2022-09-13T11:32:01;1.23;;;1.13;;
12348;SDS011;5974;42.710;27.258;2022-09-13T11:34:35;1.10;;;1.10;;
12348;SDS011;5974;42.710;27.258;2022-09-13T11:37:09;1.10;;;1.10;;
12348;SDS011;5974;42.710;27.258;2022-09-13T11:39:40;3.77;;;1.10;;
12348;SDS011;5974;42.710;27.258;2022-09-13T11:42:15;4.60;;;1.30;;
12348;SDS011;5974;42.710;27.258;2022-09-13T11:44:47;2.00;;;1.03;;
12348;SDS011;5974;42.710;27.258;2022-09-13T11:47:19;3.77;;;1.13;;
12348;SDS011;5974;42.710;27.258;2022-09-13T11:49:55;2.33;;;1.10;;
12348;SDS011;5974;42.710;27.258;2022-09-13T11:52:28;4.07;;;1.20;;
12348;SDS011;5974;42.710;27.258;2022-09-13T11:55:00;0.97;;;0.97;;
12348;SDS011;5974;42.710;27.258;2022-09-13T11:57:29;1.30;;;1.20;;
12348;SDS011;5974;42.710;27.258;2022-09-13T11:59:57;0.97;;;0.97;;
12348;SDS011;5974;42.710;27.258;2022-09-13T12:02:26;2.37;;;1.10;;
12348;SDS011;5974;42.710;27.258;2022-09-13T12:04:57;2.13;;;1.13;;
12348;SDS011;5974;42.710;27.258;2022-09-13T12:07:29;2.00;;;1.10;;
12348;SDS011;5974;42.710;27.258;2022-09-13T12:09:57;1.40;;;1.10;;
12348;SDS011;5974;42.710;27.258;2022-09-13T12:12:28;1.00;;;1.00;;
12348;SDS011;5974;42.710;27.258;2022-09-13T12:14:58;0.90;;;0.90;;
12348;SDS011;5974;42.710;27.258;2022-09-13T12:17:25;2.63;;;0.90;;
12348;SDS011;5974;42.710;27.258;2022-09-13T12:19:54;2.53;;;1.17;;
12348;SDS011;5974;42.710;27.258;2022-09-13T12:22:25;1.60;;;0.83;;
12348;SDS011;5974;42.710;27.258;2022-09-13T12:24:54;1.03;;;1.00;;
12348;SDS011;5974;42.710;27.258;2022-09-13T12:27:22;2.23;;;1.03;;
12348;SDS011;5974;42.710;27.258;2022-09-13T12:29:51;0.93;;;0.90;;
12348;SDS011;5974;42.710;27.258;2022-09-13T12:32:18;1.53;;;1.10;;
12348;SDS011;5974;42.710;27.258;2022-09-13T12:34:48;2.43;;;1.07;;
12348;SDS011;5974;42.710;27.258;2022-09-13T12:40:26;1.00;;;1.00;;
12348;SDS011;5974;42.710;27.258;2022-09-13T12:43:16;2.77;;;1.30;;
12348;SDS011;5974;42.710;27.258;2022-09-13T12:45:59;1.00;;;1.00;;
12348;SDS011;5974;42.710;27.258;2022-09-13T12:48:36;4.23;;;1.47;;
12348;SDS011;5974;42.710;27.258;2022-09-13T12:51:12;1.90;;;1.10;;
12348;SDS011;5974;42.710;27.258;2022-09-13T12:53:58;1.03;;;0.83;;
12348;SDS011;5974;42.710;27.258;2022-09-13T12:56:38;3.20;;;1.10;;
12348;SDS011;5974;42.710;27.258;2022-09-13T12:59:23;1.87;;;0.90;;
12348;SDS011;5974;42.710;27.258;2022-09-13T13:01:51;1.13;;;1.13;;
12348;SDS011;5974;42.710;27.258;2022-09-13T13:04:18;2.23;;;0.90;;
12348;SDS011;5974;42.710;27.258;2022-09-13T13:06:47;1.30;;;0.97;;
12348;SDS011;5974;42.710;27.258;2022-09-13T13:09:22;1.17;;;1.07;;
12348;SDS011;5974;42.710;27.258;2022-09-13T13:11:54;2.30;;;1.10;;
12348;SDS011;5974;42.710;27.258;2022-09-13T13:19:52;1.33;;;1.17;;
12348;SDS011;5974;42.710;27.258;2022-09-13T13:27:46;1.10;;;1.10;;
12348;SDS011;5974;42.710;27.258;2022-09-13T13:30:38;1.50;;;1.13;;
12348;SDS011;5974;42.710;27.258;2022-09-13T13:33:11;1.97;;;1.20;;
12348;SDS011;5974;42.710;27.258;2022-09-13T13:35:38;2.00;;;1.23;;
12348;SDS011;5974;42.710;27.258;2022-09-13T13:40:50;1.50;;;1.30;;
12348;SDS011;5974;42.710;27.258;2022-09-13T13:43:32;1.00;;;1.00;;
12348;SDS011;5974;42.710;27.258;2022-09-13T13:48:40;1.67;;;1.10;;
12348;SDS011;5974;42.710;27.258;2022-09-13T13:53:59;2.73;;;1.17;;
12348;SDS011;5974;42.710;27.258;2022-09-13T13:59:16;2.10;;;1.10;;
12348;SDS011;5974;42.710;27.258;2022-09-13T14:01:46;2.10;;;1.30;;
12348;SDS011;5974;42.710;27.258;2022-09-13T14:07:01;1.07;;;1.07;;
12348;SDS011;5974;42.710;27.258;2022-09-13T14:09:34;1.63;;;1.17;;
12348;SDS011;5974;42.710;27.258;2022-09-13T14:12:11;1.40;;;1.30;;
12348;SDS011;5974;42.710;27.258;2022-09-13T14:14:45;2.83;;;1.23;;
12348;SDS011;5974;42.710;27.258;2022-09-13T14:17:28;1.90;;;1.10;;
12348;SDS011;5974;42.710;27.258;2022-09-13T14:19:57;1.20;;;1.20;;
12348;SDS011;5974;42.710;27.258;2022-09-13T14:22:26;2.80;;;1.13;;
12348;SDS011;5974;42.710;27.258;2022-09-13T14:24:53;2.10;;;1.17;;
12348;SDS011;5974;42.710;27.258;2022-09-13T14:27:21;2.47;;;1.33;;
12348;SDS011;5974;42.710;27.258;2022-09-13T14:29:51;1.40;;;1.20;;
12348;SDS011;5974;42.710;27.258;2022-09-13T14:32:19;3.00;;;1.20;;
12348;SDS011;5974;42.710;27.258;2022-09-13T14:34:50;2.60;;;1.20;;
12348;SDS011;5974;42.710;27.258;2022-09-13T14:37:18;1.30;;;1.30;;
12348;SDS011;5974;42.710;27.258;2022-09-13T14:39:53;1.67;;;1.17;;
12348;SDS011;5974;42.710;27.258;2022-09-13T14:42:19;2.33;;;1.20;;
12348;SDS011;5974;42.710;27.258;2022-09-13T14:44:46;1.53;;;1.10;;
12348;SDS011;5974;42.710;27.258;2022-09-13T14:47:15;5.30;;;1.30;;
12348;SDS011;5974;42.710;27.258;2022-09-13T14:49:46;3.67;;;1.20;;
12348;SDS011;5974;42.710;27.258;2022-09-13T14:52:16;2.27;;;1.60;;
12348;SDS011;5974;42.710;27.258;2022-09-13T14:54:46;1.50;;;1.40;;
12348;SDS011;5974;42.710;27.258;2022-09-13T14:57:18;3.10;;;1.27;;
12348;SDS011;5974;42.710;27.258;2022-09-13T14:59:48;3.17;;;1.23;;
12348;SDS011;5974;42.710;27.258;2022-09-13T15:02:18;1.93;;;1.20;;
12348;SDS011;5974;42.710;27.258;2022-09-13T15:04:47;3.87;;;1.47;;
12348;SDS011;5974;42.710;27.258;2022-09-13T15:07:18;4.80;;;1.67;;
12348;SDS011;5974;42.710;27.258;2022-09-13T15:09:45;5.57;;;1.50;;
12348;SDS011;5974;42.710;27.258;2022-09-13T15:12:19;2.80;;;1.63;;
12348;SDS011;5974;42.710;27.258;2022-09-13T15:14:47;2.97;;;1.77;;
12348;SDS011;5974;42.710;27.258;2022-09-13T15:17:14;4.87;;;2.03;;
12348;SDS011;5974;42.710;27.258;2022-09-13T15:19:42;2.40;;;1.50;;
12348;SDS011;5974;42.710;27.258;2022-09-13T15:22:20;4.33;;;1.40;;
12348;SDS011;5974;42.710;27.258;2022-09-13T15:24:48;1.43;;;1.20;;
12348;SDS011;5974;42.710;27.258;2022-09-13T15:27:16;5.13;;;1.83;;
12348;SDS011;5974;42.710;27.258;2022-09-13T15:29:47;1.53;;;1.30;;
12348;SDS011;5974;42.710;27.258;2022-09-13T15:32:18;1.40;;;1.30;;
12348;SDS011;5974;42.710;27.258;2022-09-13T15:34:46;1.77;;;1.40;;
12348;SDS011;5974;42.710;27.258;2022-09-13T15:37:13;1.50;;;1.40;;
12348;SDS011;5974;42.710;27.258;2022-09-13T15:39:44;1.90;;;1.30;;
12348;SDS011;5974;42.710;27.258;2022-09-13T15:42:11;1.97;;;1.47;;
12348;SDS011;5974;42.710;27.258;2022-09-13T15:44:38;3.10;;;1.40;;